createdAt,value
2022-09-13T00:01:14.792Z,1
2022-09-13T00:03:14.355Z,1
2022-09-13T00:05:14.282Z,1
2022-09-13T00:07:14.593Z,1
2022-09-13T00:09:17.841Z,1
2022-09-13T00:11:14.660Z,1
2022-09-13T00:13:17.426Z,1
2022-09-13T00:15:14.385Z,1
2022-09-13T00:17:14.426Z,1
2022-09-13T00:19:14.433Z,1
2022-09-13T00:21:20.968Z,1
2022-09-13T00:23:17.511Z,1
2022-09-13T00:25:14.274Z,1
2022-09-13T00:27:14.511Z,1
2022-09-13T00:29:17.402Z,1
2022-09-13T00:31:14.473Z,1
2022-09-13T00:33:14.932Z,1
2022-09-13T00:35:14.310Z,1
2022-09-13T00:37:17.647Z,1
2022-09-13T00:39:14.512Z,1
2022-09-13T00:41:17.811Z,1
2022-09-13T00:43:20.945Z,1
2022-09-13T00:45:14.498Z,1
2022-09-13T00:47:14.434Z,1
2022-09-13T00:49:14.482Z,1
2022-09-13T00:51:17.858Z,1
2022-09-13T00:53:14.565Z,1
2022-09-13T00:55:14.508Z,1
2022-09-13T00:57:17.797Z,1
2022-09-13T00:59:14.720Z,1
2022-09-13T01:01:14.520Z,1
2022-09-13T01:03:14.494Z,1
2022-09-13T01:05:17.753Z,1
2022-09-13T01:07:14.350Z,1
2022-09-13T01:09:14.277Z,1
2022-09-13T01:11:14.498Z,1
2022-09-13T01:13:17.444Z,1
2022-09-13T01:15:17.807Z,1
2022-09-13T01:17:14.287Z,1
2022-09-13T01:19:14.458Z,1
2022-09-13T01:21:20.990Z,1
2022-09-13T01:23:14.322Z,1
2022-09-13T01:25:14.190Z,1
2022-09-13T01:27:14.267Z,1
2022-09-13T01:29:14.285Z,1
2022-09-13T01:31:14.538Z,1
2022-09-13T01:33:14.444Z,1
2022-09-13T01:35:14.363Z,1
2022-09-13T01:37:20.968Z,1
2022-09-13T01:39:14.236Z,1
2022-09-13T01:41:14.696Z,1
2022-09-13T01:43:14.512Z,1
2022-09-13T01:45:14.259Z,1
2022-09-13T01:47:17.449Z,1
2022-09-13T01:49:14.416Z,1
2022-09-13T01:51:17.838Z,1
2022-09-13T01:53:14.441Z,1
2022-09-13T01:55:14.358Z,1
2022-09-13T01:57:14.283Z,1
2022-09-13T01:59:17.850Z,1
2022-09-13T02:01:17.813Z,1
2022-09-13T02:03:14.376Z,1
2022-09-13T02:05:14.613Z,1
2022-09-13T02:07:17.439Z,1
2022-09-13T02:09:15.291Z,1
2022-09-13T02:11:17.834Z,1
2022-09-13T02:13:14.495Z,1
2022-09-13T02:15:17.836Z,1
2022-09-13T02:17:14.392Z,1
2022-09-13T02:19:14.369Z,1
2022-09-13T02:21:14.305Z,1
2022-09-13T02:23:17.858Z,1
2022-09-13T02:25:20.999Z,1
2022-09-13T02:27:14.510Z,1
2022-09-13T02:29:14.463Z,1
2022-09-13T02:31:14.319Z,1
2022-09-13T02:33:14.462Z,1
2022-09-13T02:35:14.686Z,1
2022-09-13T02:37:14.480Z,1
2022-09-13T02:39:17.631Z,1
2022-09-13T02:41:14.657Z,1
2022-09-13T02:43:14.353Z,1
2022-09-13T02:45:17.686Z,1
2022-09-13T02:47:14.714Z,1
2022-09-13T02:51:14.359Z,1
2022-09-13T02:53:17.431Z,1
2022-09-13T02:55:14.344Z,1
2022-09-13T02:57:14.380Z,1
2022-09-13T02:59:14.400Z,1
2022-09-13T03:01:14.307Z,1
2022-09-13T03:03:14.263Z,1
2022-09-13T03:05:14.408Z,1
2022-09-13T03:07:14.376Z,1
2022-09-13T03:09:14.572Z,1
2022-09-13T03:11:14.310Z,1
2022-09-13T03:13:14.512Z,1
2022-09-13T03:15:14.621Z,1
2022-09-13T03:17:20.843Z,1
2022-09-13T03:19:14.482Z,1
2022-09-13T03:21:14.402Z,1
2022-09-13T03:23:14.414Z,1
2022-09-13T03:25:14.439Z,1
2022-09-13T03:27:14.348Z,1
2022-09-13T03:29:14.574Z,1
2022-09-13T03:31:15.649Z,1
2022-09-13T03:33:17.507Z,1
2022-09-13T03:35:14.288Z,1
2022-09-13T03:37:14.409Z,1
2022-09-13T03:39:15.042Z,1
2022-09-13T03:41:14.312Z,1
2022-09-13T03:43:14.385Z,1
2022-09-13T03:45:14.288Z,1
2022-09-13T03:47:21.060Z,1
2022-09-13T03:49:17.831Z,1
2022-09-13T03:51:14.280Z,1
2022-09-13T03:53:14.311Z,1
2022-09-13T03:55:17.751Z,1
2022-09-13T03:57:17.848Z,0
2022-09-13T03:59:14.469Z,0
2022-09-13T04:01:14.330Z,0
2022-09-13T04:03:14.269Z,0
2022-09-13T04:05:17.619Z,0
2022-09-13T04:07:14.584Z,0.1
2022-09-13T04:09:17.821Z,0.1
2022-09-13T04:11:14.508Z,0.2
2022-09-13T04:13:14.259Z,0.3
2022-09-13T04:15:14.630Z,0.4
2022-09-13T04:17:14.422Z,0.6
2022-09-13T04:19:14.688Z,0.9
2022-09-13T04:21:17.796Z,1.3
2022-09-13T04:23:14.329Z,1.9
2022-09-13T04:25:17.840Z,2.7
2022-09-13T04:27:14.255Z,3.9
2022-09-13T04:29:14.471Z,5.8
2022-09-13T04:31:14.429Z,9
2022-09-13T04:33:14.603Z,13.5
2022-09-13T04:35:14.684Z,21.1
2022-09-13T04:37:14.421Z,30
2022-09-13T04:39:14.532Z,40.4
2022-09-13T04:41:17.881Z,51.9
2022-09-13T04:43:14.577Z,63.4
2022-09-13T04:45:17.440Z,77.5
2022-09-13T04:47:14.440Z,94.6
2022-09-13T04:49:14.531Z,115.6
2022-09-13T04:51:14.512Z,141.2
2022-09-13T04:53:14.433Z,164
2022-09-13T04:55:14.523Z,190.6
2022-09-13T04:57:14.540Z,232.8
2022-09-13T04:59:14.592Z,270.4
2022-09-13T05:01:14.335Z,314.2
2022-09-13T05:03:14.339Z,365
2022-09-13T05:05:17.857Z,403.4
2022-09-13T05:07:14.386Z,424.1
2022-09-13T05:09:14.479Z,468.7
2022-09-13T05:11:14.352Z,492.7
2022-09-13T05:13:14.265Z,518
2022-09-13T05:17:17.451Z,544.6
2022-09-13T05:19:14.528Z,572.5
2022-09-13T05:21:14.372Z,601.8
2022-09-13T05:23:14.295Z,632.7
2022-09-13T05:25:14.367Z,699.2
2022-09-13T05:27:17.805Z,699.2
2022-09-13T05:29:14.491Z,735.1
2022-09-13T05:31:17.934Z,772.8
2022-09-13T05:33:14.301Z,854.1
2022-09-13T05:35:14.504Z,943.9
2022-09-13T05:37:14.736Z,1096.6
2022-09-13T05:39:31.672Z,1152.9
2022-09-13T05:41:14.586Z,1152.9
2022-09-13T05:43:14.593Z,1212
2022-09-13T05:45:20.970Z,1339.4
2022-09-13T05:47:17.877Z,1339.4
2022-09-13T05:51:17.763Z,1480.3
2022-09-13T05:53:14.420Z,1480.3
2022-09-13T05:55:17.733Z,1480.3
2022-09-13T05:59:17.828Z,1556.2
2022-09-13T06:01:14.288Z,1636
2022-09-13T06:03:14.277Z,1636
2022-09-13T06:05:17.322Z,1636
2022-09-13T06:07:17.452Z,1636
2022-09-13T06:09:14.225Z,1636
2022-09-13T06:11:14.402Z,1636
2022-09-13T06:13:17.857Z,1808
2022-09-13T06:15:14.233Z,1808
2022-09-13T06:17:14.239Z,1900.7
2022-09-13T06:19:17.727Z,1998.2
2022-09-13T06:21:14.523Z,2100.6
2022-09-13T06:23:14.726Z,2208.3
2022-09-13T06:25:14.319Z,2208.3
2022-09-13T06:27:14.421Z,2321.6
2022-09-13T06:29:14.291Z,2321.6
2022-09-13T06:31:17.533Z,2565.7
2022-09-13T06:33:14.461Z,5431.7
2022-09-13T06:35:17.485Z,9897.1
2022-09-13T06:37:14.420Z,10938
2022-09-13T06:39:14.398Z,11498.8
2022-09-13T06:41:14.379Z,11498.8
2022-09-13T06:43:14.434Z,12708.2
2022-09-13T06:45:17.546Z,13359.7
2022-09-13T06:47:14.481Z,14044.7
2022-09-13T06:49:17.903Z,13359.7
2022-09-13T06:51:14.339Z,12708.2
2022-09-13T06:53:14.618Z,12708.2
2022-09-13T06:55:14.747Z,11498.8
2022-09-13T06:57:14.339Z,8103.1
2022-09-13T06:59:14.354Z,9414.4
2022-09-13T07:01:14.544Z,8518.5
2022-09-13T07:03:14.347Z,7332
2022-09-13T07:05:14.539Z,7707.9
2022-09-13T07:07:17.862Z,6002.9
2022-09-13T07:09:14.326Z,5710.1
2022-09-13T07:11:14.281Z,5710.1
2022-09-13T07:13:14.335Z,5431.7
2022-09-13T07:15:14.598Z,5431.7
2022-09-13T07:17:21.043Z,5431.7
2022-09-13T07:19:14.335Z,5431.7
2022-09-13T07:21:14.263Z,5431.7
2022-09-13T07:23:17.694Z,5431.7
2022-09-13T07:25:14.463Z,5431.7
2022-09-13T07:27:17.959Z,5431.7
2022-09-13T07:29:14.258Z,5431.7
2022-09-13T07:31:14.735Z,5431.7
2022-09-13T07:33:17.904Z,5431.7
2022-09-13T07:35:14.365Z,5710.1
2022-09-13T07:37:17.491Z,5710.1
2022-09-13T07:39:17.311Z,6002.9
2022-09-13T07:41:17.875Z,6002.9
2022-09-13T07:43:14.272Z,6310.7
2022-09-13T07:45:14.558Z,6634.2
2022-09-13T07:47:14.286Z,6634.2
2022-09-13T07:49:17.904Z,6974.4
2022-09-13T07:51:14.241Z,6974.4
2022-09-13T07:53:14.415Z,6974.4
2022-09-13T07:55:14.684Z,7332
2022-09-13T07:57:14.568Z,7332
2022-09-13T07:59:14.674Z,7332
2022-09-13T08:01:14.571Z,7332
2022-09-13T08:03:14.403Z,7332
2022-09-13T08:05:17.965Z,7332
2022-09-13T08:07:17.814Z,7332
2022-09-13T08:09:14.351Z,7332
2022-09-13T08:11:14.452Z,7707.9
2022-09-13T08:13:17.919Z,7707.9
2022-09-13T08:15:14.327Z,7707.9
2022-09-13T08:17:14.468Z,8103.1
2022-09-13T08:19:14.615Z,7707.9
2022-09-13T08:21:14.454Z,8103.1
2022-09-13T08:23:18.003Z,8103.1
2022-09-13T08:25:14.246Z,8518.5
2022-09-13T08:27:14.434Z,8518.5
2022-09-13T08:29:14.934Z,8518.5
2022-09-13T08:31:14.541Z,8955.3
2022-09-13T08:33:14.847Z,8955.3
2022-09-13T08:35:17.515Z,8518.5
2022-09-13T08:37:14.407Z,8103.1
2022-09-13T08:39:14.374Z,8103.1
2022-09-13T08:43:14.597Z,7332
2022-09-13T08:45:14.305Z,6974.4
2022-09-13T08:47:20.812Z,6634.2
2022-09-13T08:49:17.702Z,6310.7
2022-09-13T08:51:14.322Z,6310.7
2022-09-13T08:53:14.540Z,6002.9
2022-09-13T08:55:14.597Z,6002.9
2022-09-13T08:57:14.542Z,5710.1
2022-09-13T08:59:14.458Z,5710.1
2022-09-13T09:01:14.496Z,5710.1
2022-09-13T09:03:14.328Z,5710.1
2022-09-13T09:05:17.910Z,5710.1
2022-09-13T09:07:17.487Z,5710.1
2022-09-13T09:09:14.263Z,5710.1
2022-09-13T09:11:17.923Z,6002.9
2022-09-13T09:13:24.379Z,6002.9
2022-09-13T09:15:14.268Z,6310.7
2022-09-13T09:17:14.328Z,6634.2
2022-09-13T09:19:14.870Z,6634.2
2022-09-13T09:21:14.843Z,6310.7
2022-09-13T09:23:21.839Z,6310.7
2022-09-13T09:25:14.357Z,6310.7
2022-09-13T09:27:17.870Z,6002.9
2022-09-13T09:29:14.475Z,6002.9
2022-09-13T09:31:14.630Z,6002.9
2022-09-13T09:33:14.786Z,6310.7
2022-09-13T09:35:14.509Z,6310.7
2022-09-13T09:37:14.325Z,6310.7
2022-09-13T09:39:14.450Z,6310.7
2022-09-13T09:41:14.580Z,6310.7
2022-09-13T09:43:14.689Z,6310.7
2022-09-13T09:45:21.037Z,6310.7
2022-09-13T09:47:14.603Z,6310.7
2022-09-13T09:49:14.421Z,6634.2
2022-09-13T09:51:14.548Z,6634.2
2022-09-13T09:53:14.424Z,6634.2
2022-09-13T09:55:14.581Z,6634.2
2022-09-13T09:57:14.382Z,6974.4
2022-09-13T09:59:21.113Z,6974.4
2022-09-13T10:01:14.378Z,7332
2022-09-13T10:03:14.509Z,7707.9
2022-09-13T10:05:17.922Z,8103.1
2022-09-13T10:07:17.793Z,10404.6
2022-09-13T10:09:17.456Z,11498.8
2022-09-13T10:11:17.910Z,13359.7
2022-09-13T10:13:17.521Z,14764.8
2022-09-13T10:15:14.437Z,16317.6
2022-09-13T10:17:14.394Z,16317.6
2022-09-13T10:19:14.456Z,15521.8
2022-09-13T10:21:14.524Z,14764.8
2022-09-13T10:23:17.978Z,14764.8
2022-09-13T10:25:14.649Z,15521.8
2022-09-13T10:27:14.432Z,15521.8
2022-09-13T10:29:14.576Z,16317.6
2022-09-13T10:31:17.206Z,17154.2
2022-09-13T10:33:14.479Z,17154.2
2022-09-13T10:35:15.108Z,16317.6
2022-09-13T10:37:14.619Z,15521.8
2022-09-13T10:39:18.098Z,14044.7
2022-09-13T10:41:14.638Z,13359.7
2022-09-13T10:43:14.339Z,12708.2
2022-09-13T10:45:17.851Z,10938
2022-09-13T10:47:21.055Z,9414.4
2022-09-13T10:49:17.999Z,8955.3
2022-09-13T10:51:14.351Z,8955.3
2022-09-13T10:53:17.763Z,9414.4
2022-09-13T10:55:14.490Z,10404.6
2022-09-13T10:57:14.398Z,10404.6
2022-09-13T10:59:17.604Z,9897.1
2022-09-13T11:01:14.483Z,9414.4
2022-09-13T11:03:17.906Z,8103.1
2022-09-13T11:05:14.520Z,7332
2022-09-13T11:07:14.394Z,6974.4
2022-09-13T11:09:14.484Z,6974.4
2022-09-13T11:11:14.803Z,8518.5
2022-09-13T11:13:21.144Z,10938
2022-09-13T11:15:14.378Z,12088.4
2022-09-13T11:17:14.819Z,12708.2
2022-09-13T11:19:14.588Z,15521.8
2022-09-13T11:21:14.342Z,15521.8
2022-09-13T11:23:14.578Z,14764.8
2022-09-13T11:25:17.940Z,14044.7
2022-09-13T11:27:14.527Z,12088.4
2022-09-13T11:29:14.630Z,12088.4
2022-09-13T11:31:14.829Z,13359.7
2022-09-13T11:33:21.095Z,14764.8
2022-09-13T11:35:14.434Z,15521.8
2022-09-13T11:37:21.113Z,16317.6
2022-09-13T11:39:14.468Z,17154.2
2022-09-13T11:41:17.593Z,16317.6
2022-09-13T11:43:14.447Z,15521.8
2022-09-13T11:45:18.143Z,17154.2
2022-09-13T11:47:14.934Z,18033.7
2022-09-13T11:49:17.920Z,17154.2
2022-09-13T11:51:14.465Z,16317.6
2022-09-13T11:53:14.463Z,17154.2
2022-09-13T11:55:14.357Z,16317.6
2022-09-13T11:57:14.341Z,18033.7
2022-09-13T11:59:15.684Z,18033.7
2022-09-13T12:01:14.346Z,16317.6
2022-09-13T12:03:14.738Z,16317.6
2022-09-13T12:05:22.362Z,16317.6
2022-09-13T12:07:17.930Z,14764.8
2022-09-13T12:09:14.452Z,14044.7
2022-09-13T12:11:20.897Z,12708.2
2022-09-13T12:15:14.348Z,11498.8
2022-09-13T12:17:17.943Z,11498.8
2022-09-13T12:19:18.039Z,8955.3
2022-09-13T12:21:14.374Z,9897.1
2022-09-13T12:23:17.964Z,12708.2
2022-09-13T12:25:14.534Z,14044.7
2022-09-13T12:27:14.904Z,14764.8
2022-09-13T12:29:18.031Z,14764.8
2022-09-13T12:31:14.347Z,14044.7
2022-09-13T12:33:21.082Z,14764.8
2022-09-13T12:35:14.428Z,14764.8
2022-09-13T12:37:17.744Z,15521.8
2022-09-13T12:39:14.428Z,14764.8
2022-09-13T12:41:18.201Z,15521.8
2022-09-13T12:43:14.369Z,15521.8
2022-09-13T12:45:14.463Z,14764.8
2022-09-13T12:47:21.045Z,14044.7
2022-09-13T12:49:14.531Z,13359.7
2022-09-13T12:51:17.974Z,14044.7
2022-09-13T12:53:14.751Z,12708.2
2022-09-13T12:55:29.615Z,12088.4
2022-09-13T12:57:14.375Z,10404.6
2022-09-13T12:59:14.533Z,8955.3
2022-09-13T13:01:18.000Z,8518.5
2022-09-13T13:03:17.929Z,8518.5
2022-09-13T13:05:14.408Z,8518.5
2022-09-13T13:07:21.039Z,8518.5
2022-09-13T13:09:17.913Z,8518.5
2022-09-13T13:11:17.897Z,7332
2022-09-13T13:13:14.727Z,11498.8
2022-09-13T13:15:14.479Z,10938
2022-09-13T13:17:14.499Z,10404.6
2022-09-13T13:19:18.040Z,10404.6
2022-09-13T13:21:14.387Z,10404.6
2022-09-13T13:23:19.906Z,9414.4
2022-09-13T13:25:14.365Z,8955.3
2022-09-13T13:27:17.939Z,8518.5
2022-09-13T13:29:14.700Z,8103.1
2022-09-13T13:31:17.984Z,7707.9
2022-09-13T13:33:17.557Z,8103.1
2022-09-13T13:35:21.112Z,8518.5
2022-09-13T13:37:14.392Z,7707.9
2022-09-13T13:39:14.583Z,7332
2022-09-13T13:41:14.713Z,7707.9
2022-09-13T13:43:14.556Z,8518.5
2022-09-13T13:45:17.968Z,10938
2022-09-13T13:47:17.523Z,12708.2
2022-09-13T13:49:14.656Z,11498.8
2022-09-13T13:51:21.216Z,10938
2022-09-13T13:53:14.498Z,9897.1
2022-09-13T13:55:14.491Z,9414.4
2022-09-13T13:57:14.466Z,8518.5
2022-09-13T13:59:14.874Z,8103.1
2022-09-13T14:01:14.361Z,7707.9
2022-09-13T14:03:17.958Z,7332
2022-09-13T14:05:14.399Z,6974.4
2022-09-13T14:07:19.995Z,6974.4
2022-09-13T14:09:14.514Z,6634.2
2022-09-13T14:11:14.437Z,6310.7
2022-09-13T14:15:17.959Z,5710.1
2022-09-13T14:17:17.893Z,5431.7
2022-09-13T14:19:14.538Z,4914.8
2022-09-13T14:21:17.924Z,4914.8
2022-09-13T14:23:14.441Z,4675.1
2022-09-13T14:25:17.944Z,5166.8
2022-09-13T14:27:14.466Z,5710.1
2022-09-13T14:29:17.581Z,6634.2
2022-09-13T14:31:14.397Z,7332
2022-09-13T14:33:14.380Z,7707.9
2022-09-13T14:35:14.399Z,7707.9
2022-09-13T14:37:14.495Z,7332
2022-09-13T14:39:14.575Z,7332
2022-09-13T14:41:17.706Z,6974.4
2022-09-13T14:43:14.399Z,6974.4
2022-09-13T14:45:14.387Z,6634.2
2022-09-13T14:47:14.516Z,6310.7
2022-09-13T14:49:17.937Z,6002.9
2022-09-13T14:51:17.936Z,6002.9
2022-09-13T14:53:14.416Z,5710.1
2022-09-13T14:55:17.793Z,5710.1
2022-09-13T14:57:14.421Z,5431.7
2022-09-13T14:59:21.258Z,5166.8
2022-09-13T15:01:14.429Z,4914.8
2022-09-13T15:03:14.497Z,4675.1
2022-09-13T15:05:17.975Z,4447.1
2022-09-13T15:07:14.621Z,4230.2
2022-09-13T15:09:14.473Z,3827.6
2022-09-13T15:11:18.020Z,3463.4
2022-09-13T15:13:14.386Z,2981
2022-09-13T15:15:14.465Z,2697.3
2022-09-13T15:17:17.969Z,2321.6
2022-09-13T15:19:14.708Z,2100.6
2022-09-13T15:21:14.410Z,1808
2022-09-13T15:23:21.065Z,1636
2022-09-13T15:25:14.501Z,1480.3
2022-09-13T15:27:14.401Z,1480.3
2022-09-13T15:29:14.876Z,1408.1
2022-09-13T15:31:14.662Z,1480.3
2022-09-13T15:33:14.404Z,1556.2
2022-09-13T15:35:14.592Z,1808
2022-09-13T15:37:14.511Z,1998.2
2022-09-13T15:39:14.394Z,2100.6
2022-09-13T15:41:14.541Z,2321.6
2022-09-13T15:43:14.503Z,2440.6
2022-09-13T15:45:14.567Z,2440.6
2022-09-13T15:47:20.934Z,2697.3
2022-09-13T15:49:14.313Z,2835.6
2022-09-13T15:51:14.540Z,2981
2022-09-13T15:53:14.647Z,3133.8
2022-09-13T15:55:17.940Z,3133.8
2022-09-13T15:57:17.526Z,3294.5
2022-09-13T15:59:17.995Z,3463.4
2022-09-13T16:01:14.495Z,3133.8
2022-09-13T16:03:14.420Z,2835.6
2022-09-13T16:05:20.865Z,2835.6
2022-09-13T16:07:14.772Z,2565.7
2022-09-13T16:09:21.181Z,2321.6
2022-09-13T16:11:17.794Z,2208.3
2022-09-13T16:13:21.107Z,2100.6
2022-09-13T16:15:14.457Z,1900.7
2022-09-13T16:17:21.119Z,1719.9
2022-09-13T16:21:14.397Z,1556.2
2022-09-13T16:23:14.493Z,1480.3
2022-09-13T16:25:14.429Z,1408.1
2022-09-13T16:27:14.873Z,1339.4
2022-09-13T16:29:14.711Z,1339.4
2022-09-13T16:31:14.493Z,1274.1
2022-09-13T16:33:14.501Z,1212
2022-09-13T16:35:14.450Z,1096.6
2022-09-13T16:37:17.984Z,992.3
2022-09-13T16:39:14.638Z,897.8
2022-09-13T16:41:17.655Z,812.4
2022-09-13T16:43:21.078Z,699.2
2022-09-13T16:45:17.553Z,665.1
2022-09-13T16:47:14.438Z,632.7
2022-09-13T16:49:18.022Z,601.8
2022-09-13T16:51:14.486Z,601.8
2022-09-13T16:53:14.706Z,572.5
2022-09-13T16:55:14.412Z,544.6
2022-09-13T16:57:14.407Z,518
2022-09-13T16:59:14.417Z,492.7
2022-09-13T17:01:18.003Z,468.7
2022-09-13T17:03:18.006Z,445.9
2022-09-13T17:05:14.664Z,403.4
2022-09-13T17:07:14.627Z,365
2022-09-13T17:09:14.474Z,330.3
2022-09-13T17:11:14.541Z,298.9
2022-09-13T17:13:17.943Z,257.2
2022-09-13T17:15:14.404Z,221.4
2022-09-13T17:17:14.696Z,190.6
2022-09-13T17:19:14.614Z,156
2022-09-13T17:21:17.524Z,127.7
2022-09-13T17:23:17.943Z,99.5
2022-09-13T17:27:17.849Z,60.3
2022-09-13T17:29:14.490Z,47
2022-09-13T17:31:14.700Z,38.5
2022-09-13T17:33:14.884Z,31.5
2022-09-13T17:35:14.499Z,25.8
2022-09-13T17:37:14.598Z,20.1
2022-09-13T17:39:14.527Z,16.4
2022-09-13T17:41:14.788Z,12.2
2022-09-13T17:43:14.452Z,9.5
2022-09-13T17:45:20.989Z,6.7
2022-09-13T17:47:17.553Z,5
2022-09-13T17:49:17.800Z,3.7
2022-09-13T17:51:14.402Z,2.7
2022-09-13T17:53:21.138Z,1.8
2022-09-13T17:55:19.600Z,1.3
2022-09-13T17:57:14.408Z,1
2022-09-13T17:59:14.832Z,0.6
2022-09-13T18:01:18.072Z,0.4
2022-09-13T18:03:17.829Z,0.3
2022-09-13T18:05:17.542Z,0.2
2022-09-13T18:07:17.438Z,0.2
2022-09-13T18:09:14.519Z,0.1
2022-09-13T18:11:21.831Z,0
2022-09-13T18:13:14.416Z,0
2022-09-13T18:15:17.541Z,0
2022-09-13T18:17:14.450Z,0
2022-09-13T18:19:14.436Z,0
2022-09-13T18:21:14.323Z,1
2022-09-13T18:23:17.978Z,1
2022-09-13T18:25:14.430Z,1
2022-09-13T18:27:14.430Z,1
2022-09-13T18:29:18.038Z,1
2022-09-13T18:31:21.148Z,1
2022-09-13T18:33:14.484Z,1
2022-09-13T18:35:17.588Z,1
2022-09-13T18:37:15.413Z,1
2022-09-13T18:39:14.476Z,1
2022-09-13T18:41:14.865Z,1
2022-09-13T18:43:14.347Z,1
2022-09-13T18:45:18.020Z,1
2022-09-13T18:47:18.043Z,1
2022-09-13T18:49:14.638Z,1
2022-09-13T18:51:14.501Z,1
2022-09-13T18:53:17.635Z,1
2022-09-13T18:55:14.441Z,1
2022-09-13T18:57:17.796Z,1
2022-09-13T18:59:15.480Z,1
2022-09-13T19:01:14.820Z,1
2022-09-13T19:03:14.662Z,1
2022-09-13T19:05:21.951Z,1
2022-09-13T19:07:14.369Z,1
2022-09-13T19:09:19.927Z,1
2022-09-13T19:11:29.372Z,1
2022-09-13T19:13:22.260Z,1
2022-09-13T19:15:17.965Z,1
2022-09-13T19:17:17.817Z,1
2022-09-13T19:19:15.285Z,1
2022-09-13T19:21:14.540Z,1
2022-09-13T19:23:16.619Z,1
2022-09-13T19:25:15.678Z,1
2022-09-13T19:29:17.795Z,1
2022-09-13T19:31:15.412Z,1
2022-09-13T19:33:19.236Z,1
2022-09-13T19:35:14.830Z,1
2022-09-13T19:37:14.689Z,1
2022-09-13T19:39:15.043Z,1
2022-09-13T19:41:15.508Z,1
2022-09-13T19:43:22.267Z,1
2022-09-13T19:45:17.835Z,1
2022-09-13T19:49:21.350Z,1
2022-09-13T19:51:14.444Z,1
2022-09-13T19:53:15.219Z,1
2022-09-13T19:55:21.433Z,1
2022-09-13T19:57:15.142Z,1
2022-09-13T19:59:18.309Z,1
2022-09-13T20:01:15.551Z,1
2022-09-13T20:03:15.162Z,1
2022-09-13T20:05:19.883Z,1
2022-09-13T20:07:14.462Z,1
2022-09-13T20:09:15.993Z,1
2022-09-13T20:11:14.796Z,1
2022-09-13T20:13:15.608Z,1
2022-09-13T20:15:14.781Z,1
2022-09-13T20:17:14.574Z,1
2022-09-13T20:19:36.755Z,1
2022-09-13T20:21:19.526Z,1
2022-09-13T20:23:15.603Z,1
2022-09-13T20:25:14.827Z,1
2022-09-13T20:27:14.720Z,1
2022-09-13T20:29:14.578Z,1
2022-09-13T20:33:29.987Z,1
2022-09-13T20:35:15.871Z,1
2022-09-13T20:37:14.442Z,1
2022-09-13T20:39:14.710Z,1
2022-09-13T20:41:15.831Z,1
2022-09-13T20:43:16.229Z,1
2022-09-13T20:45:14.656Z,1
2022-09-13T20:47:15.087Z,1
2022-09-13T20:49:15.107Z,1
2022-09-13T20:51:21.140Z,1
2022-09-13T20:53:14.372Z,1
2022-09-13T20:55:14.361Z,1
2022-09-13T20:57:17.463Z,1
2022-09-13T20:59:14.490Z,1
2022-09-13T21:01:14.466Z,1
2022-09-13T21:03:20.812Z,1
2022-09-13T21:05:18.020Z,1
2022-09-13T21:07:14.934Z,1
2022-09-13T21:09:14.719Z,1
2022-09-13T21:11:14.579Z,1
2022-09-13T21:13:14.883Z,1
2022-09-13T21:15:17.994Z,1
2022-09-13T21:17:17.518Z,1
2022-09-13T21:19:14.424Z,1
2022-09-13T21:21:14.443Z,1
2022-09-13T21:23:18.044Z,1
2022-09-13T21:25:14.819Z,1
2022-09-13T21:27:15.502Z,1
2022-09-13T21:29:21.083Z,1
2022-09-13T21:31:18.289Z,1
2022-09-13T21:33:17.997Z,1
2022-09-13T21:35:14.710Z,1
2022-09-13T21:37:14.550Z,1
2022-09-13T21:39:14.434Z,1
2022-09-13T21:41:20.784Z,1
2022-09-13T21:43:14.431Z,1
2022-09-13T21:45:14.881Z,1
2022-09-13T21:47:15.061Z,1
2022-09-13T21:49:14.598Z,1
2022-09-13T21:51:14.566Z,1
2022-09-13T21:53:14.626Z,1
2022-09-13T21:55:14.565Z,1
2022-09-13T21:57:14.882Z,1
2022-09-13T21:59:14.480Z,1
2022-09-13T22:01:14.452Z,1
2022-09-13T22:03:14.490Z,1
2022-09-13T22:05:18.077Z,1
2022-09-13T22:07:21.148Z,1
2022-09-13T22:09:21.064Z,1
2022-09-13T22:11:14.354Z,1
2022-09-13T22:13:17.587Z,1
2022-09-13T22:15:17.972Z,1
2022-09-13T22:17:14.473Z,1
2022-09-13T22:19:14.615Z,1
2022-09-13T22:21:14.866Z,1
2022-09-13T22:23:14.713Z,1
2022-09-13T22:25:14.531Z,1
2022-09-13T22:27:14.528Z,1
2022-09-13T22:29:14.539Z,1
2022-09-13T22:31:14.756Z,1
2022-09-13T22:33:17.967Z,1
2022-09-13T22:35:14.490Z,1
2022-09-13T22:37:14.535Z,1
2022-09-13T22:39:17.947Z,1
2022-09-13T22:41:17.940Z,1
2022-09-13T22:43:21.044Z,1
2022-09-13T22:45:14.545Z,1
2022-09-13T22:47:14.490Z,1
2022-09-13T22:49:14.628Z,1
2022-09-13T22:53:14.476Z,1
2022-09-13T22:55:14.427Z,1
2022-09-13T22:57:14.378Z,1
2022-09-13T22:59:14.760Z,1
2022-09-13T23:01:14.581Z,1
2022-09-13T23:03:14.623Z,1
2022-09-13T23:05:14.381Z,1
2022-09-13T23:07:14.430Z,1
2022-09-13T23:09:14.554Z,1
2022-09-13T23:11:17.615Z,1
2022-09-13T23:15:14.587Z,1
2022-09-13T23:17:21.131Z,1
2022-09-13T23:19:14.876Z,1
2022-09-13T23:21:14.456Z,1
2022-09-13T23:23:17.726Z,1
2022-09-13T23:25:14.443Z,1
2022-09-13T23:27:17.650Z,1
2022-09-13T23:29:14.760Z,1
2022-09-13T23:31:18.413Z,1
2022-09-13T23:33:17.579Z,1
2022-09-13T23:35:14.474Z,1
2022-09-13T23:37:17.953Z,1
2022-09-13T23:39:14.433Z,1
2022-09-13T23:41:20.819Z,1
2022-09-13T23:43:17.981Z,1
2022-09-13T23:45:17.740Z,1
2022-09-13T23:47:14.383Z,1
2022-09-13T23:49:14.610Z,1
2022-09-13T23:51:18.017Z,1
2022-09-13T23:53:14.478Z,1
2022-09-13T23:55:14.428Z,1
2022-09-13T23:57:21.135Z,1
2022-09-13T23:59:17.674Z,1
